createdAt,value
2023-05-14T00:02:10.416Z,8.34
2023-05-14T00:07:19.927Z,8.38
2023-05-14T00:58:55.635Z,8.27
2023-05-14T01:04:05.768Z,8.27
2023-05-14T01:09:13.856Z,8.49
2023-05-14T01:14:22.370Z,8.49
2023-05-14T01:19:31.473Z,8.27
2023-05-14T01:24:40.648Z,8.27
2023-05-14T01:29:50.309Z,8.23
2023-05-14T01:35:00.742Z,8.23
2023-05-14T01:40:10.499Z,8.15
2023-05-14T01:45:18.330Z,8.15
2023-05-14T01:50:26.818Z,8.13
2023-05-14T01:55:35.275Z,8.32
2023-05-14T02:00:44.426Z,8.32
2023-05-14T02:05:52.919Z,8.29
2023-05-14T02:11:01.374Z,8.29
2023-05-14T02:16:11.660Z,8.13
2023-05-14T02:21:18.980Z,8.13
2023-05-14T02:26:28.080Z,8.08
2023-05-14T02:31:36.276Z,8.08
2023-05-14T03:33:25.995Z,8.12
2023-05-14T03:38:35.805Z,8
2023-05-14T03:43:46.197Z,8
2023-05-14T03:48:56.284Z,8.06
2023-05-14T03:54:05.083Z,8.06
2023-05-14T03:59:13.544Z,7.94
2023-05-14T04:04:23.624Z,7.94
2023-05-14T04:09:33.088Z,7.88
2023-05-14T04:14:41.586Z,7.88
2023-05-14T05:06:16.574Z,7.9
2023-05-14T05:11:25.726Z,7.9
2023-05-14T05:16:35.347Z,8.06
2023-05-14T05:21:44.617Z,8.06
2023-05-14T05:26:53.710Z,8.09
2023-05-14T05:32:02.839Z,8.09
2023-05-14T05:37:11.932Z,8.19
2023-05-14T05:42:21.724Z,8.19
2023-05-14T05:47:31.228Z,8.14
2023-05-14T05:52:39.328Z,8.14
2023-05-14T05:57:47.809Z,8.29
2023-05-14T06:02:57.853Z,8.29
2023-05-14T06:08:06.655Z,7.88
2023-05-14T06:13:16.397Z,7.88
2023-05-14T06:18:26.470Z,8.02
2023-05-14T06:23:34.736Z,8.02
2023-05-14T06:28:43.163Z,8.05
2023-05-14T07:15:03.921Z,8.13
2023-05-14T07:20:13.776Z,8.14
2023-05-14T07:25:22.189Z,8.14
2023-05-14T07:30:30.661Z,8.07
2023-05-14T07:35:39.790Z,8.07
2023-05-14T07:40:48.902Z,8.14
2023-05-14T07:45:59.294Z,8.14
2023-05-14T07:51:09.717Z,7.77
2023-05-14T07:56:18.197Z,7.77
2023-05-14T08:01:27.954Z,7.74
2023-05-14T08:06:36.411Z,7.74
2023-05-14T08:11:45.581Z,7.79
2023-05-14T08:16:56.591Z,7.77
2023-05-14T08:22:06.308Z,7.77
2023-05-14T08:27:15.449Z,7.69
2023-05-14T08:32:25.247Z,7.69
2023-05-14T08:37:34.356Z,7.73
2023-05-14T08:42:44.101Z,7.73
2023-05-14T08:47:55.091Z,7.76
2023-05-14T08:53:03.653Z,7.76
2023-05-14T08:58:12.756Z,7.77
2023-05-14T09:03:22.831Z,7.77
2023-05-14T09:08:31.634Z,7.8
2023-05-14T09:13:41.386Z,7.8
2023-05-14T09:18:50.829Z,7.88
2023-05-14T09:23:59.917Z,7.88
2023-05-14T09:29:08.768Z,7.93
2023-05-14T09:34:18.504Z,7.93
2023-05-14T09:39:27.679Z,7.92
2023-05-14T09:44:37.392Z,7.92
2023-05-14T09:49:45.933Z,7.77
2023-05-14T09:54:55.013Z,7.77
2023-05-14T10:00:05.360Z,7.71
2023-05-14T10:05:13.891Z,7.71
2023-05-14T10:10:23.801Z,7.71
2023-05-14T10:56:43.123Z,7.73
2023-05-14T11:01:52.590Z,7.8
2023-05-14T11:07:02.031Z,7.8
2023-05-14T11:12:11.738Z,7.81
2023-05-14T11:17:21.112Z,7.81
2023-05-14T11:22:32.605Z,7.78
2023-05-14T11:27:41.697Z,7.78
2023-05-14T11:32:51.048Z,7.72
2023-05-14T11:37:58.676Z,7.83
2023-05-14T11:43:08.417Z,7.83
2023-05-14T11:48:17.532Z,7.77
2023-05-14T11:53:27.307Z,7.77
2023-05-14T11:58:36.414Z,7.71
2023-05-14T12:03:46.893Z,7.71
2023-05-14T12:08:55.278Z,7.67
2023-05-14T12:14:04.414Z,7.67
2023-05-14T12:19:13.809Z,7.8
2023-05-14T12:24:22.713Z,7.8
2023-05-14T12:42:12.857Z,7.69
2023-05-14T12:47:23.173Z,7.69
2023-05-14T12:52:40.408Z,7.77
2023-05-14T12:57:39.949Z,7.77
2023-05-14T13:02:49.493Z,7.7
2023-05-14T13:07:59.002Z,7.7
2023-05-14T13:13:08.199Z,7.67
2023-05-14T13:18:16.620Z,7.66
2023-05-14T13:23:25.687Z,7.66
2023-05-14T13:28:36.156Z,7.73
2023-05-14T13:33:44.616Z,7.73
2023-05-14T13:38:53.714Z,7.74
2023-05-14T13:44:01.536Z,7.74
2023-05-14T13:49:11.309Z,7.71
2023-05-14T13:54:21.096Z,7.71
2023-05-14T13:59:30.184Z,7.66
2023-05-14T14:04:39.952Z,7.66
2023-05-14T14:09:48.424Z,7.72
2023-05-14T14:14:56.904Z,7.72
2023-05-14T14:20:05.458Z,7.74
2023-05-14T14:25:15.776Z,7.74
2023-05-14T14:30:24.910Z,7.67
2023-05-14T14:35:33.389Z,7.67
2023-05-14T14:40:42.490Z,7.73
2023-05-14T14:45:51.386Z,7.73
2023-05-14T14:51:00.129Z,7.68
2023-05-14T14:56:09.892Z,7.68
2023-05-14T15:01:20.041Z,7.88
2023-05-14T15:06:29.404Z,7.88
2023-05-14T15:11:39.144Z,7.83
2023-05-14T16:03:13.122Z,7.62
2023-05-14T16:08:21.367Z,7.62
2023-05-14T16:59:47.510Z,7.65
2023-05-14T17:04:57.671Z,7.65
2023-05-14T17:10:05.734Z,7.73
2023-05-14T17:15:14.837Z,7.73
2023-05-14T17:20:23.277Z,7.73
2023-05-14T17:25:34.941Z,7.73
2023-05-14T17:30:44.142Z,7.71
2023-05-14T17:35:53.239Z,7.71
2023-05-14T17:41:02.337Z,7.74
2023-05-14T17:46:12.296Z,7.74
2023-05-14T17:51:21.818Z,7.72
2023-05-14T17:56:30.961Z,7.72
2023-05-14T18:01:39.484Z,7.73
2023-05-14T18:06:48.586Z,7.73
2023-05-14T18:11:57.739Z,7.73
2023-05-14T18:17:06.933Z,7.73
2023-05-14T18:22:15.290Z,7.82
2023-05-14T18:27:25.059Z,7.82
2023-05-14T18:32:35.027Z,7.73
2023-05-14T18:37:44.609Z,7.73
2023-05-14T18:42:53.072Z,7.75
2023-05-14T18:48:01.964Z,7.75
2023-05-14T18:53:10.668Z,7.75
2023-05-14T19:39:29.563Z,7.79
2023-05-14T20:31:01.544Z,7.71
2023-05-14T20:36:10.546Z,7.71
2023-05-14T20:41:20.262Z,7.71
2023-05-14T20:46:30.405Z,7.71
2023-05-14T20:51:39.796Z,7.7
2023-05-14T20:56:48.250Z,7.7
2023-05-14T21:01:58.318Z,7.73
2023-05-14T21:07:07.239Z,7.73
2023-05-14T21:12:15.630Z,7.87
2023-05-14T21:17:24.344Z,7.87
2023-05-14T21:22:33.876Z,7.8
2023-05-14T21:27:43.001Z,7.8
2023-05-14T21:32:52.962Z,7.94
2023-05-14T21:38:00.623Z,7.94
2023-05-14T21:43:09.107Z,7.78
2023-05-14T21:48:18.216Z,7.78
2023-05-14T21:53:27.317Z,7.81
2023-05-14T21:58:37.101Z,7.81
2023-05-14T22:03:46.480Z,7.79
2023-05-14T22:44:57.278Z,7.87
2023-05-14T22:50:06.991Z,7.87
2023-05-14T22:55:16.100Z,7.86
2023-05-14T23:00:24.609Z,7.86
2023-05-14T23:05:34.363Z,7.9
2023-05-14T23:10:44.734Z,7.9
2023-05-14T23:15:53.914Z,8.02
2023-05-14T23:21:03.026Z,7.84
2023-05-14T23:26:12.746Z,7.84
2023-05-14T23:31:23.368Z,7.86
